Terminal Aerodrome Forecast
Issued by NWS

Home | Current Version | Previous Version | Text Only | Print | Product List | Glossary On
Versions: 1 2 3 4 5 6 7 8 9 10 11 12 13 14 15 16 17 18 19 20
618
FTUS43 KDLH 220036 AAA
TAFBRD
TAF AMD
KBRD 220036Z 2201/2224 26010G15KT P6SM OVC030
     FM220130 25008KT P6SM BKN050
     FM221100 26006KT P6SM SCT250
     FM221600 26010KT P6SM SCT250=

USA.gov is the U.S. government's official web portal to all federal, state and local government web resources and services.